Terminal Aerodrome Forecast
Issued by NWS St Louis, MO

Home | Current Version | Previous Version | Graphics & Text | Print | Product List | Glossary Off
Versions: 1 2 3 4 5 6 7 8 9 10 11 12 13 14 15 16 17 18 19 20 21 22 23 24 25 26 27

836
FTUS43 KLSX 042243 AAC
TAFSTL
TAF AMD
KSTL 042243Z 0423/0524 28008KT P6SM OVC015
     FM050400 VRB04KT P6SM SCT020
     FM050900 VRB03KT 4SM BR SKC
     FM051500 14007KT P6SM SCT250=

USA.gov is the U.S. government's official web portal to all federal, state and local government web resources and services.